Time;durP1;ratioP1;P1;durP2;ratioP2;P2;SDS_P1;SDS_P2;PMS_P1;PMS_P2;Temp;Humidity;BMP_temperature;BMP_pressure;BME280_temperature;BME280_humidity;BME280_pressure;Samples;Min_cycle;Max_cycle;Signal;HPM_P1;HPM_P2
2022/06/14 00:00:53;;;;;;;11.00;2.97;;;11.60;99.90;;;;;;5033882;28;20155;-76
2022/06/14 00:03:40;;;;;;;7.57;2.40;;;11.50;99.90;;;;;;5018455;28;20148;-75
2022/06/14 00:06:20;;;;;;;12.20;2.97;;;11.50;99.90;;;;;;5032410;28;20045;-76
2022/06/14 00:08:46;;;;;;;8.00;1.90;;;11.60;99.90;;;;;;5025920;28;20113;-76
2022/06/14 00:11:21;;;;;;;9.43;2.40;;;12.70;99.90;;;;;;5011452;28;20038;-76
2022/06/14 00:13:48;;;;;;;9.73;3.28;;;11.50;99.90;;;;;;5034852;28;20072;-75
2022/06/14 00:16:14;;;;;;;11.13;3.08;;;11.50;99.90;;;;;;5012994;28;20046;-75
2022/06/14 00:18:40;;;;;;;7.57;2.35;;;11.50;99.90;;;;;;5011103;28;20045;-76
2022/06/14 00:21:06;;;;;;;12.90;3.00;;;11.50;99.90;;;;;;5034461;28;20120;-76
2022/06/14 00:23:33;;;;;;;14.48;2.92;;;12.20;99.90;;;;;;5028877;28;20087;-76
2022/06/14 00:25:59;;;;;;;11.68;3.20;;;11.40;99.90;;;;;;5024717;28;20049;-76
2022/06/14 00:28:29;;;;;;;10.35;2.70;;;11.40;99.90;;;;;;5039411;28;20041;-76
2022/06/14 00:30:59;;;;;;;11.07;2.55;;;11.90;99.90;;;;;;5030623;28;20041;-76
2022/06/14 00:33:25;;;;;;;8.77;2.20;;;11.20;99.90;;;;;;5032507;28;20042;-76
2022/06/14 00:36:04;;;;;;;8.98;3.03;;;11.20;99.90;;;;;;5031760;28;20047;-76
2022/06/14 00:38:30;;;;;;;9.75;2.60;;;11.20;99.90;;;;;;5013088;28;20068;-76
2022/06/14 00:40:58;;;;;;;12.68;2.83;;;11.20;99.90;;;;;;5031614;28;20064;-76
2022/06/14 00:43:25;;;;;;;7.82;2.40;;;11.20;99.90;;;;;;5013499;28;20054;-76
2022/06/14 00:45:51;;;;;;;11.43;2.88;;;11.20;99.90;;;;;;5014343;28;20486;-76
2022/06/14 00:48:45;;;;;;;6.47;2.33;;;11.20;99.90;;;;;;5033116;28;20046;-76
2022/06/14 00:51:23;;;;;;;9.40;2.20;;;11.20;99.90;;;;;;5026928;28;20493;-76
2022/06/14 00:54:13;;;;;;;11.13;2.47;;;11.90;99.90;;;;;;5016948;28;20059;-76
2022/06/14 00:56:53;;;;;;;7.68;2.28;;;11.10;99.90;;;;;;5026190;28;20565;-76
2022/06/14 00:59:32;;;;;;;10.52;2.55;;;11.10;99.90;;;;;;5030434;28;20116;-76
2022/06/14 01:02:13;;;;;;;11.98;2.42;;;11.60;99.90;;;;;;5019961;28;20400;-76
2022/06/14 01:04:40;;;;;;;8.27;2.25;;;11.10;99.90;;;;;;5000128;28;20060;-76
2022/06/14 01:07:24;;;;;;;13.32;2.40;;;11.10;99.90;;;;;;5006506;28;20073;-76
2022/06/14 01:10:15;;;;;;;16.27;3.08;;;11.00;99.90;;;;;;5009309;28;20329;-76
2022/06/14 01:12:45;;;;;;;8.73;2.33;;;11.00;99.90;;;;;;5032693;28;20058;-75
2022/06/14 01:15:32;;;;;;;10.80;2.90;;;10.70;99.90;;;;;;5028812;28;20038;-75
2022/06/14 01:18:07;;;;;;;5.50;2.13;;;10.90;99.90;;;;;;5026847;28;20053;-75
2022/06/14 01:20:35;;;;;;;9.55;2.40;;;10.90;99.90;;;;;;5017093;28;20133;-75
2022/06/14 01:23:01;;;;;;;13.63;2.72;;;10.90;99.90;;;;;;5024640;28;20187;-75
2022/06/14 01:25:33;;;;;;;11.02;2.90;;;10.90;99.90;;;;;;5032713;28;20037;-76
2022/06/14 01:28:01;;;;;;;12.70;2.55;;;12.30;99.90;;;;;;5038971;28;20041;-76
2022/06/14 01:30:42;;;;;;;10.20;2.80;;;10.80;99.90;;;;;;5014222;28;20072;-76
2022/06/14 01:33:28;;;;;;;8.20;2.33;;;10.90;99.90;;;;;;5029139;28;20142;-76
2022/06/14 01:36:05;;;;;;;7.45;2.28;;;10.80;99.90;;;;;;5037433;28;20033;-75
2022/06/14 01:38:30;;;;;;;6.78;2.40;;;10.80;99.90;;;;;;5034705;28;20497;-76
2022/06/14 01:41:08;;;;;;;9.35;3.05;;;12.00;99.90;;;;;;5026574;28;20083;-76
2022/06/14 01:43:59;;;;;;;10.15;2.97;;;10.70;99.90;;;;;;5036504;28;20048;-76
2022/06/14 01:46:33;;;;;;;7.63;2.40;;;10.60;99.90;;;;;;5020059;28;20041;-76
2022/06/14 01:51:50;;;;;;;10.20;2.75;;;10.60;99.90;;;;;;5026768;28;20039;-76
2022/06/14 01:51:59;;;;;;;8.05;3.08;;;10.60;99.90;;;;;;5036306;28;20081;-75
2022/06/14 01:54:48;;;;;;;12.93;3.42;;;10.60;99.90;;;;;;5035462;28;20133;-76
2022/06/14 01:57:45;;;;;;;10.23;2.72;;;10.60;99.90;;;;;;5027532;28;20500;-76
2022/06/14 02:00:17;;;;;;;9.73;2.92;;;10.60;99.90;;;;;;5027784;28;20041;-76
2022/06/14 02:04:36;;;;;;;11.60;3.40;;;11.00;99.90;;;;;;5029861;28;20037;-76
2022/06/14 02:05:49;;;;;;;8.57;2.55;;;10.50;99.90;;;;;;5034937;28;20051;-76
2022/06/14 02:08:20;;;;;;;10.20;3.50;;;11.70;99.90;;;;;;5021591;28;20050;-76
2022/06/14 02:11:15;;;;;;;13.02;2.97;;;10.60;99.90;;;;;;5030141;28;20588;-76
2022/06/14 02:13:44;;;;;;;;;;;10.60;99.90;;;;;;5014134;28;20095;-75
2022/06/14 02:16:24;;;;;;;9.70;2.35;;;10.50;99.90;;;;;;5039949;28;19924;-75
2022/06/14 02:19:06;;;;;;;10.07;4.03;;;10.50;99.90;;;;;;5012056;28;20049;-76
2022/06/14 02:21:41;;;;;;;13.15;2.92;;;10.90;99.90;;;;;;5038226;28;20033;-76
2022/06/14 02:24:24;;;;;;;8.07;2.58;;;10.30;99.90;;;;;;5024253;28;20037;-75
2022/06/14 02:26:56;;;;;;;14.27;3.35;;;10.30;99.90;;;;;;5019663;28;20091;-76
2022/06/14 02:29:32;;;;;;;10.32;3.05;;;10.40;99.90;;;;;;5034149;28;20046;-75
2022/06/14 02:32:03;;;;;;;12.23;3.35;;;10.30;99.90;;;;;;5040004;28;20048;-76
2022/06/14 02:34:42;;;;;;;9.65;3.00;;;10.30;99.90;;;;;;5041612;28;20124;-76
2022/06/14 02:37:25;;;;;;;10.85;3.10;;;10.30;99.90;;;;;;5024038;28;20060;-76
2022/06/14 02:39:58;;;;;;;10.18;3.47;;;9.80;99.90;;;;;;5027893;28;20048;-76
2022/06/14 02:42:43;;;;;;;14.70;3.67;;;10.40;99.90;;;;;;5019829;28;20331;-76
2022/06/14 02:45:17;;;;;;;12.60;3.47;;;10.40;99.90;;;;;;5032147;28;20472;-76
2022/06/14 02:47:46;;;;;;;;;;;10.50;99.90;;;;;;5029716;28;20037;-76
2022/06/14 02:50:21;;;;;;;10.13;3.08;;;10.30;99.90;;;;;;5028819;28;20320;-76
2022/06/14 02:53:09;;;;;;;12.63;3.22;;;10.30;99.90;;;;;;5020043;28;20038;-76
2022/06/14 02:55:43;;;;;;;5.30;3.15;;;9.20;99.90;;;;;;5014475;28;20064;-75
2022/06/14 02:58:19;;;;;;;11.13;3.72;;;11.40;99.90;;;;;;5007725;28;20404;-76
2022/06/14 03:00:50;;;;;;;15.18;4.15;;;10.30;99.90;;;;;;5009978;28;20060;-76
2022/06/14 03:03:22;;;;;;;10.43;4.00;;;10.30;99.90;;;;;;5037516;28;20416;-76
2022/06/14 03:06:05;;;;;;;6.28;2.95;;;10.20;99.90;;;;;;5029282;28;20049;-76
2022/06/14 03:08:53;;;;;;;11.40;3.78;;;10.20;99.90;;;;;;5033915;28;20060;-76
2022/06/14 03:11:34;;;;;;;12.07;3.08;;;10.30;99.90;;;;;;5017146;28;20050;-75
2022/06/14 03:14:12;;;;;;;11.60;3.55;;;10.30;99.90;;;;;;5020903;28;20061;-75
2022/06/14 03:17:33;;;;;;;13.13;3.88;;;10.30;99.90;;;;;;5027283;28;20091;-76
2022/06/14 03:20:12;;;;;;;6.63;3.00;;;10.30;99.90;;;;;;5022033;28;20102;-75
2022/06/14 03:22:47;;;;;;;9.57;3.15;;;10.30;99.90;;;;;;5032457;28;20054;-76
2022/06/14 03:25:47;;;;;;;14.00;3.58;;;10.30;99.90;;;;;;5029858;28;20082;-76
2022/06/14 03:28:16;;;;;;;14.57;3.55;;;10.20;99.90;;;;;;5022513;28;20053;-76
2022/06/14 03:31:03;;;;;;;12.80;3.70;;;10.20;99.90;;;;;;5017201;28;20049;-76
2022/06/14 03:33:54;;;;;;;11.90;3.00;;;10.30;99.90;;;;;;5017524;28;20069;-75
2022/06/14 03:36:23;;;;;;;8.40;3.13;;;10.30;99.90;;;;;;5019973;28;20390;-75
2022/06/14 03:39:04;;;;;;;9.90;3.55;;;10.30;99.90;;;;;;5016718;28;20083;-75
2022/06/14 03:41:34;;;;;;;12.02;3.60;;;10.20;99.90;;;;;;5019455;28;20050;-74
2022/06/14 03:44:03;;;;;;;11.40;3.83;;;10.20;99.90;;;;;;4984971;28;20037;-74
2022/06/14 03:46:57;;;;;;;12.98;4.05;;;10.50;99.90;;;;;;5002692;28;20038;-74
2022/06/14 03:49:25;;;;;;;11.80;3.05;;;10.20;99.90;;;;;;5013460;28;20084;-75
2022/06/14 03:52:13;;;;;;;8.32;2.97;;;11.60;99.90;;;;;;5000730;28;20053;-75
2022/06/14 03:55:09;;;;;;;10.93;3.22;;;10.10;99.90;;;;;;5016934;28;20048;-77
2022/06/14 03:58:19;;;;;;;12.63;4.30;;;10.10;99.90;;;;;;5020877;28;20133;-76
2022/06/14 04:00:48;;;;;;;12.63;3.30;;;10.10;99.90;;;;;;5012287;28;20072;-76
2022/06/14 04:03:39;;;;;;;11.10;3.17;;;10.00;99.90;;;;;;5029085;28;20041;-75
2022/06/14 04:06:47;;;;;;;13.40;3.78;;;11.60;99.90;;;;;;5025386;28;20044;-76
2022/06/14 04:09:46;;;;;;;12.15;3.50;;;10.10;99.90;;;;;;5006966;28;20052;-76
2022/06/14 04:12:38;;;;;;;8.45;2.88;;;10.20;99.90;;;;;;5006866;28;20060;-75
2022/06/14 04:15:45;;;;;;;7.78;3.20;;;10.20;99.90;;;;;;5023117;28;20053;-76
2022/06/14 04:18:38;;;;;;;11.23;3.45;;;10.20;99.90;;;;;;4990829;28;20133;-76
2022/06/14 04:21:22;;;;;;;6.57;3.67;;;10.20;99.90;;;;;;5011766;28;20053;-77
2022/06/14 04:24:03;;;;;;;16.13;5.22;;;10.30;99.90;;;;;;5017916;28;20050;-76
2022/06/14 04:26:52;;;;;;;14.00;7.93;;;10.20;99.90;;;;;;5037909;28;20037;-76
2022/06/14 04:29:55;;;;;;;12.38;5.90;;;9.70;99.90;;;;;;5026910;28;20044;-75
2022/06/14 04:32:42;;;;;;;8.27;4.50;;;10.10;99.90;;;;;;5029434;28;20052;-75
2022/06/14 04:35:16;;;;;;;10.15;3.85;;;10.20;99.90;;;;;;5017975;28;20399;-75
2022/06/14 04:37:53;;;;;;;7.57;3.60;;;10.20;99.90;;;;;;5017503;28;20057;-77
2022/06/14 04:40:28;;;;;;;8.65;3.35;;;10.30;99.90;;;;;;5011711;28;20563;-77
2022/06/14 04:43:06;;;;;;;12.35;4.13;;;10.30;99.90;;;;;;5017820;28;20540;-78
2022/06/14 04:45:45;;;;;;;12.30;3.90;;;10.30;99.90;;;;;;5018608;28;20046;-76
2022/06/14 04:48:21;;;;;;;10.30;4.20;;;10.30;99.90;;;;;;5019559;28;20055;-77
2022/06/14 04:51:00;;;;;;;11.35;3.92;;;10.40;99.90;;;;;;4670195;28;9999747;-77
2022/06/14 04:53:40;;;;;;;8.15;3.70;;;10.30;99.90;;;;;;5024269;28;20045;-75
2022/06/14 04:56:15;;;;;;;16.38;7.70;;;10.40;99.90;;;;;;5016693;28;20053;-76
2022/06/14 04:59:16;;;;;;;16.17;5.50;;;10.40;99.90;;;;;;5022832;28;20029;-77
2022/06/14 05:01:53;;;;;;;10.50;4.32;;;10.40;99.90;;;;;;4990745;28;20052;-77
2022/06/14 05:04:33;;;;;;;11.38;4.47;;;11.80;99.90;;;;;;5009701;28;20116;-76
2022/06/14 05:07:17;;;;;;;11.32;3.97;;;10.50;99.90;;;;;;5010257;28;20056;-75
2022/06/14 05:09:58;;;;;;;12.43;4.55;;;10.50;99.90;;;;;;5007166;28;20038;-77
2022/06/14 05:12:30;;;;;;;9.18;3.60;;;10.50;99.90;;;;;;5010282;28;20555;-78
2022/06/14 05:15:10;;;;;;;13.27;4.05;;;10.50;99.90;;;;;;5020221;28;20111;-78
2022/06/14 05:18:07;;;;;;;10.40;4.50;;;10.50;99.90;;;;;;5027449;28;20053;-75
2022/06/14 05:20:46;;;;;;;10.10;4.07;;;10.60;99.90;;;;;;4972429;28;20600;-79
2022/06/14 05:23:35;;;;;;;12.05;3.85;;;10.50;99.90;;;;;;5027076;28;20100;-78
2022/06/14 05:26:05;;;;;;;11.82;4.03;;;11.80;99.90;;;;;;5001748;28;20057;-81
2022/06/14 05:29:03;;;;;;;13.85;5.32;;;11.00;99.90;;;;;;5035130;28;20096;-79
2022/06/14 05:31:43;;;;;;;13.73;3.33;;;10.90;99.90;;;;;;5028539;28;20409;-81
2022/06/14 05:34:17;;;;;;;14.55;3.83;;;10.80;99.90;;;;;;5024715;28;20033;-81
2022/06/14 05:37:15;;;;;;;8.48;3.42;;;10.90;99.90;;;;;;5035805;28;20057;-83
2022/06/14 05:39:57;;;;;;;9.75;4.13;;;11.00;99.90;;;;;;5024950;28;20076;-80
2022/06/14 05:42:29;;;;;;;12.82;3.20;;;11.90;99.90;;;;;;5027534;28;20439;-84
2022/06/14 05:44:59;;;;;;;10.23;4.05;;;11.20;99.90;;;;;;5027291;28;20066;-78
2022/06/14 05:47:38;;;;;;;8.80;2.85;;;12.40;99.90;;;;;;5009594;28;20044;-78
2022/06/14 05:50:13;;;;;;;6.20;3.22;;;12.40;99.90;;;;;;5010337;28;20056;-77
2022/06/14 05:52:48;;;;;;;12.73;2.97;;;12.40;99.90;;;;;;5032629;28;20450;-79
2022/06/14 05:55:20;;;;;;;6.10;2.97;;;11.50;99.90;;;;;;5023735;28;20073;-79
2022/06/14 05:58:08;;;;;;;7.15;2.60;;;11.60;99.90;;;;;;5036461;28;20121;-79
2022/06/14 06:00:43;;;;;;;14.00;3.53;;;11.70;99.90;;;;;;5004469;28;20440;-79
2022/06/14 06:03:32;;;;;;;10.65;2.88;;;13.40;99.90;;;;;;5026502;28;20076;-77
2022/06/14 06:06:05;;;;;;;11.73;3.22;;;11.90;99.90;;;;;;5024190;28;20041;-76
2022/06/14 06:08:38;;;;;;;9.40;3.45;;;12.00;99.90;;;;;;5024271;28;20432;-76
2022/06/14 06:11:10;;;;;;;10.52;3.15;;;12.10;99.90;;;;;;5023752;28;20049;-77
2022/06/14 06:13:54;;;;;;;11.63;3.05;;;12.10;99.90;;;;;;5037228;28;20049;-75
2022/06/14 06:19:25;;;;;;;13.75;3.10;;;12.30;99.90;;;;;;5035379;28;20386;-76
2022/06/14 06:22:14;;;;;;;17.17;3.92;;;12.40;99.90;;;;;;5035472;28;20041;-77
2022/06/14 06:24:47;;;;;;;10.40;2.83;;;12.50;99.90;;;;;;5027641;28;20030;-78
2022/06/14 06:27:13;;;;;;;11.73;3.63;;;12.60;99.90;;;;;;5036046;28;20079;-76
2022/06/14 06:30:07;;;;;;;11.77;2.72;;;14.30;99.90;;;;;;5024741;28;20076;-77
2022/06/14 06:32:34;;;;;;;9.98;3.53;;;12.70;99.90;;;;;;5037386;28;20558;-76
2022/06/14 06:35:03;;;;;;;14.02;3.65;;;12.80;99.90;;;;;;5037509;28;20213;-78
2022/06/14 06:37:37;;;;;;;6.78;2.30;;;12.90;99.90;;;;;;5014072;28;20087;-77
2022/06/14 06:40:13;;;;;;;8.60;2.42;;;12.90;99.90;;;;;;5037313;28;20042;-78
2022/06/14 06:43:09;;;;;;;10.73;1.83;;;13.00;99.90;;;;;;5040562;28;20471;-76
2022/06/14 06:45:38;;;;;;;6.13;2.13;;;13.10;99.90;;;;;;5024810;28;20037;-77
2022/06/14 06:48:21;;;;;;;9.75;2.03;;;13.20;99.90;;;;;;5038907;28;20121;-78
2022/06/14 06:50:55;;;;;;;9.77;1.77;;;13.30;99.90;;;;;;5040736;28;20402;-79
2022/06/14 06:53:23;;;;;;;9.30;1.75;;;13.30;99.90;;;;;;5018878;28;20103;-78
2022/06/14 06:56:23;;;;;;;7.57;1.65;;;13.40;99.90;;;;;;5023111;28;20087;-79
2022/06/14 06:59:04;;;;;;;7.70;2.05;;;13.40;99.90;;;;;;5028363;28;20053;-80
2022/06/14 07:01:36;;;;;;;10.40;2.58;;;13.50;99.90;;;;;;5028632;28;20071;-78
2022/06/14 07:04:20;;;;;;;7.03;2.55;;;13.60;99.90;;;;;;5034328;28;20034;-79
2022/06/14 07:06:52;;;;;;;7.00;2.07;;;13.60;99.90;;;;;;5035427;28;20041;-79
2022/06/14 07:09:45;;;;;;;7.07;1.92;;;14.70;99.90;;;;;;5017406;28;20292;-79
2022/06/14 07:12:24;;;;;;;5.97;1.52;;;13.70;99.90;;;;;;5022169;28;20045;-80
2022/06/14 07:14:58;;;;;;;4.93;1.70;;;13.80;99.90;;;;;;5025157;28;20079;-79
2022/06/14 07:17:34;;;;;;;5.80;1.38;;;13.80;99.90;;;;;;5038604;28;20081;-79
2022/06/14 07:20:16;;;;;;;7.47;1.80;;;13.80;99.90;;;;;;5020872;28;20450;-78
2022/06/14 07:23:12;;;;;;;6.53;1.50;;;14.60;99.90;;;;;;5031868;28;20061;-79
2022/06/14 07:25:58;;;;;;;4.30;1.35;;;14.00;99.90;;;;;;5012844;28;20053;-78
2022/06/14 07:28:46;;;;;;;5.00;1.90;;;14.00;99.90;;;;;;5018278;28;20073;-79
2022/06/14 07:31:31;;;;;;;5.95;1.65;;;14.10;99.90;;;;;;5036416;28;20132;-77
2022/06/14 07:33:57;;;;;;;8.30;1.77;;;14.20;99.90;;;;;;5022802;28;20072;-78
2022/06/14 07:36:43;;;;;;;6.03;1.23;;;15.20;99.90;;;;;;5021464;28;20136;-77
2022/06/14 07:39:53;;;;;;;6.57;1.25;;;14.30;99.90;;;;;;5022438;28;20482;-78
2022/06/14 07:42:23;;;;;;;4.93;2.45;;;14.40;99.90;;;;;;4961925;28;20065;-78
2022/06/14 07:45:05;;;;;;;8.88;1.63;;;14.60;99.90;;;;;;5022622;28;20060;-78
2022/06/14 07:47:42;;;;;;;9.70;1.35;;;14.40;99.90;;;;;;5038408;28;20091;-79
2022/06/14 07:50:17;;;;;;;6.30;1.33;;;14.40;99.90;;;;;;5021395;28;20041;-78
2022/06/14 07:52:56;;;;;;;5.10;0.95;;;14.60;99.90;;;;;;5034384;28;20096;-78
2022/06/14 07:55:32;;;;;;;5.63;1.27;;;14.60;99.90;;;;;;5044229;28;20480;-77
2022/06/14 07:58:02;;;;;;;11.40;1.85;;;14.70;99.90;;;;;;5035811;28;20041;-77
2022/06/14 08:03:28;;;;;;;5.35;1.30;;;15.20;99.90;;;;;;5036990;28;20041;-78
2022/06/14 08:05:55;;;;;;;3.58;0.82;;;14.70;99.90;;;;;;5023053;28;20048;-77
2022/06/14 08:08:27;;;;;;;4.75;0.98;;;15.10;99.90;;;;;;5020771;28;20041;-78
2022/06/14 08:11:00;;;;;;;2.30;0.52;;;14.60;99.90;;;;;;5017334;28;20485;-78
2022/06/14 08:13:32;;;;;;;4.10;0.77;;;14.60;99.90;;;;;;5022192;28;20088;-78
2022/06/14 08:16:01;;;;;;;7.85;1.25;;;14.60;99.90;;;;;;5038233;28;20472;-78
2022/06/14 08:18:31;;;;;;;7.07;0.93;;;14.70;99.90;;;;;;5035076;28;20045;-76
2022/06/14 08:21:00;;;;;;;4.25;1.20;;;14.80;99.90;;;;;;5038822;28;20090;-78
2022/06/14 08:23:49;;;;;;;2.97;0.95;;;14.90;99.90;;;;;;5022746;28;20037;-77
2022/06/14 08:26:32;;;;;;;3.10;0.82;;;15.00;99.90;;;;;;5038455;28;20385;-78
2022/06/14 08:29:10;;;;;;;2.83;0.80;;;15.00;99.90;;;;;;5031863;28;20040;-78
2022/06/14 08:32:01;;;;;;;3.95;0.77;;;15.20;99.90;;;;;;5042486;28;20143;-77
2022/06/14 08:34:57;;;;;;;4.65;1.40;;;15.20;99.90;;;;;;5030686;28;20095;-78
2022/06/14 08:37:28;;;;;;;5.18;1.10;;;15.20;99.90;;;;;;5009517;28;20056;-77
2022/06/14 08:40:28;;;;;;;5.43;1.10;;;15.20;99.90;;;;;;5037941;28;20041;-79
2022/06/14 08:43:09;;;;;;;4.05;0.85;;;15.10;99.90;;;;;;5038505;28;20520;-78
2022/06/14 08:45:45;;;;;;;3.67;1.23;;;15.20;99.90;;;;;;5037662;28;20048;-79
2022/06/14 08:48:29;;;;;;;4.63;1.00;;;15.30;99.90;;;;;;5040271;28;20721;-79
2022/06/14 08:51:36;;;;;;;6.05;2.05;;;15.50;99.90;;;;;;5018119;28;20049;-77
2022/06/14 08:54:39;;;;;;;7.90;1.55;;;15.60;99.90;;;;;;4969307;28;20060;-78
2022/06/14 08:57:19;;;;;;;4.45;1.30;;;15.60;99.90;;;;;;5015219;28;20052;-80
2022/06/14 08:59:56;;;;;;;5.57;1.15;;;15.50;99.90;;;;;;5028067;28;20086;-79
2022/06/14 09:02:43;;;;;;;6.00;1.38;;;15.50;99.90;;;;;;5035548;28;20045;-78
2022/06/14 09:05:17;;;;;;;1.95;0.60;;;15.50;99.90;;;;;;5021242;28;20114;-80
2022/06/14 09:08:01;;;;;;;3.03;1.00;;;15.50;99.90;;;;;;5038944;28;20495;-78
2022/06/14 09:10:33;;;;;;;2.92;1.08;;;15.50;99.90;;;;;;5017637;28;20409;-78
2022/06/14 09:13:23;;;;;;;4.47;0.88;;;15.60;99.90;;;;;;5041100;28;20049;-79
2022/06/14 09:16:10;;;;;;;4.85;0.50;;;15.70;99.90;;;;;;5007957;28;20115;-78
2022/06/14 09:18:39;;;;;;;3.33;0.52;;;15.90;99.90;;;;;;5036192;28;20048;-79
2022/06/14 09:21:32;;;;;;;1.85;0.65;;;15.90;99.90;;;;;;5022111;28;20463;-78
2022/06/14 09:24:12;;;;;;;2.95;0.68;;;16.00;99.90;;;;;;5013174;28;20056;-78
2022/06/14 09:27:08;;;;;;;1.63;0.77;;;15.90;99.90;;;;;;5035948;28;20543;-77
2022/06/14 09:30:09;;;;;;;3.90;0.50;;;15.80;99.90;;;;;;5027741;28;20114;-79
2022/06/14 09:33:15;;;;;;;2.38;0.75;;;15.80;99.90;;;;;;5035859;28;20492;-78
2022/06/14 09:36:06;;;;;;;3.05;0.60;;;15.90;99.90;;;;;;5021182;28;20044;-77
2022/06/14 09:38:57;;;;;;;3.90;0.85;;;15.20;99.90;;;;;;5014821;28;20060;-77
2022/06/14 09:41:51;;;;;;;3.05;1.00;;;16.30;99.90;;;;;;5042050;28;20087;-78
2022/06/14 09:44:16;;;;;;;3.63;0.70;;;16.40;99.90;;;;;;5020545;28;20033;-79
2022/06/14 09:47:21;;;;;;;2.40;0.77;;;16.50;99.90;;;;;;5038593;28;20115;-77
2022/06/14 09:50:25;;;;;;;5.18;0.77;;;16.50;99.90;;;;;;5021989;28;20503;-79
2022/06/14 09:53:15;;;;;;;1.90;0.50;;;16.50;99.90;;;;;;5040514;28;20068;-80
2022/06/14 09:56:08;;;;;;;1.48;0.60;;;16.50;99.90;;;;;;5029148;28;20498;-75
2022/06/14 09:58:50;;;;;;;4.13;0.65;;;16.40;99.90;;;;;;5040021;28;20397;-80
2022/06/14 10:01:20;;;;;;;1.27;0.50;;;16.30;99.90;;;;;;5042464;28;20116;-79
2022/06/14 10:04:22;;;;;;;2.10;0.55;;;16.40;99.90;;;;;;5037584;28;20045;-80
2022/06/14 10:07:06;;;;;;;2.20;0.52;;;16.60;99.90;;;;;;5039696;28;20049;-79
2022/06/14 10:09:47;;;;;;;2.65;0.90;;;16.70;99.90;;;;;;5038172;28;20087;-78
2022/06/14 10:12:32;;;;;;;2.10;0.75;;;16.80;99.90;;;;;;5024649;28;20400;-80
2022/06/14 10:15:21;;;;;;;3.08;0.80;;;16.70;99.90;;;;;;5040127;28;20044;-79
2022/06/14 10:18:25;;;;;;;2.42;0.93;;;16.70;99.90;;;;;;5020066;28;20061;-80
2022/06/14 10:21:03;;;;;;;4.30;1.05;;;16.70;99.90;;;;;;5023703;28;20129;-76
2022/06/14 10:23:31;;;;;;;2.75;0.52;;;17.30;99.90;;;;;;5025335;28;20037;-77
2022/06/14 10:28:59;;;;;;;3.25;0.80;;;16.60;99.90;;;;;;5039148;28;20128;-80
2022/06/14 10:31:54;;;;;;;4.63;1.05;;;16.30;99.90;;;;;;5044201;28;20124;-80
2022/06/14 10:34:32;;;;;;;3.05;0.80;;;16.60;99.90;;;;;;5018211;28;20091;-78
2022/06/14 10:37:36;;;;;;;2.92;0.77;;;16.60;99.90;;;;;;5031193;28;20091;-78
2022/06/14 10:40:40;;;;;;;2.63;1.27;;;16.50;99.90;;;;;;5032250;28;20125;-78
2022/06/14 10:43:18;;;;;;;4.70;0.80;;;16.60;99.90;;;;;;5032192;28;20061;-75
2022/06/14 10:45:47;;;;;;;4.30;1.17;;;16.60;99.90;;;;;;5037980;28;20061;-78
2022/06/14 10:48:33;;;;;;;5.72;1.08;;;16.60;99.90;;;;;;5045482;28;20025;-78
2022/06/14 10:51:05;;;;;;;4.72;0.85;;;16.60;99.90;;;;;;5026725;28;20485;-79
2022/06/14 10:53:48;;;;;;;4.57;0.90;;;16.60;99.90;;;;;;5039120;28;20623;-79
2022/06/14 10:56:26;;;;;;;5.07;1.52;;;16.70;99.90;;;;;;5028196;28;20037;-78
2022/06/14 10:58:58;;;;;;;3.72;1.48;;;17.50;99.90;;;;;;5021706;28;20559;-79
2022/06/14 11:01:39;;;;;;;2.95;1.20;;;16.70;99.90;;;;;;5026859;28;20120;-78
2022/06/14 11:04:17;;;;;;;2.67;0.98;;;16.70;99.90;;;;;;5033267;28;20132;-79
2022/06/14 11:06:45;;;;;;;2.65;1.23;;;16.70;99.90;;;;;;5039973;28;20516;-79
2022/06/14 11:09:21;;;;;;;2.10;0.57;;;16.80;99.90;;;;;;5037037;28;20045;-78
2022/06/14 11:11:49;;;;;;;2.70;0.90;;;16.80;99.90;;;;;;5040266;28;20037;-78
2022/06/14 11:14:15;;;;;;;4.63;1.48;;;16.90;99.90;;;;;;5024309;28;20053;-79
2022/06/14 11:16:51;;;;;;;5.40;1.42;;;17.00;99.90;;;;;;5035416;28;20048;-76
2022/06/14 11:19:31;;;;;;;2.28;0.95;;;18.40;99.90;;;;;;5038241;28;20730;-78
2022/06/14 11:22:10;;;;;;;4.43;1.17;;;17.50;99.90;;;;;;5038274;28;20068;-78
2022/06/14 11:24:36;;;;;;;3.95;2.42;;;17.10;99.90;;;;;;5041660;28;20439;-79
2022/06/14 11:27:11;;;;;;;5.55;3.00;;;18.40;99.90;;;;;;5039468;28;20041;-79
2022/06/14 11:29:43;;;;;;;4.70;1.38;;;17.10;99.90;;;;;;5037875;28;20072;-79
2022/06/14 11:32:22;;;;;;;2.33;0.80;;;17.20;99.90;;;;;;5026229;28;20055;-79
2022/06/14 11:35:09;;;;;;;4.43;1.00;;;17.20;99.90;;;;;;5024020;28;20100;-79
2022/06/14 11:37:58;;;;;;;2.72;0.80;;;17.20;99.90;;;;;;5042012;28;20047;-77
2022/06/14 11:40:28;;;;;;;6.05;1.35;;;17.20;99.90;;;;;;5037519;28;20045;-78
2022/06/14 11:43:18;;;;;;;4.60;1.15;;;17.30;99.90;;;;;;5020605;28;20087;-78
2022/06/14 11:46:23;;;;;;;5.72;1.45;;;17.30;99.90;;;;;;5024819;28;20060;-78
2022/06/14 11:49:07;;;;;;;5.60;1.10;;;17.30;99.90;;;;;;5023060;28;20045;-80
2022/06/14 11:52:03;;;;;;;4.28;1.20;;;18.20;99.90;;;;;;5038172;28;20044;-76
2022/06/14 11:54:44;;;;;;;5.10;1.60;;;17.40;99.90;;;;;;5014832;28;20055;-79
2022/06/14 11:57:48;;;;;;;3.47;1.13;;;17.40;99.90;;;;;;5013350;28;20068;-79
2022/06/14 12:00:23;;;;;;;2.40;1.20;;;17.50;99.90;;;;;;5027083;28;20477;-78
2022/06/14 12:03:01;;;;;;;4.05;1.45;;;17.60;99.90;;;;;;5041951;28;20088;-77
2022/06/14 12:05:40;;;;;;;3.08;0.88;;;17.80;99.90;;;;;;5034966;28;20045;-77
2022/06/14 12:08:44;;;;;;;2.42;0.82;;;18.00;99.90;;;;;;5036730;28;20037;-78
2022/06/14 12:11:29;;;;;;;6.50;1.13;;;18.30;99.90;;;;;;5013812;28;20045;-77
2022/06/14 12:14:17;;;;;;;2.30;1.02;;;18.70;99.90;;;;;;5015458;28;20064;-78
2022/06/14 12:16:53;;;;;;;5.18;3.38;;;18.80;99.90;;;;;;5021760;28;20041;-77
2022/06/14 12:19:30;;;;;;;6.97;1.75;;;18.90;99.90;;;;;;5029888;28;20398;-77
2022/06/14 12:22:28;;;;;;;5.03;1.23;;;18.90;99.90;;;;;;5029046;28;20053;-78
2022/06/14 12:28:06;;;;;;;1.90;0.80;;;18.80;99.90;;;;;;5035134;28;20053;-78
2022/06/14 12:30:33;;;;;;;4.32;1.10;;;18.70;99.90;;;;;;5022880;28;20127;-78
2022/06/14 12:33:11;;;;;;;3.90;0.98;;;18.60;99.90;;;;;;5012796;28;20060;-78
2022/06/14 12:35:53;;;;;;;3.90;1.20;;;18.60;99.90;;;;;;5022638;28;20497;-78
2022/06/14 12:38:25;;;;;;;5.38;1.08;;;18.40;99.90;;;;;;5022764;28;20041;-77
2022/06/14 12:41:11;;;;;;;4.30;0.93;;;18.40;99.90;;;;;;5027634;28;20054;-77
2022/06/14 12:43:57;;;;;;;3.25;1.00;;;18.30;99.90;;;;;;5029565;28;20084;-78
2022/06/14 12:46:31;;;;;;;4.32;1.00;;;18.20;99.90;;;;;;5026222;28;20045;-78
2022/06/14 12:49:04;;;;;;;6.82;1.35;;;18.20;99.90;;;;;;5035465;28;20045;-79
2022/06/14 12:51:46;;;;;;;6.25;1.38;;;18.80;99.90;;;;;;5037088;28;20063;-80
2022/06/14 12:54:36;;;;;;;3.83;1.10;;;18.10;99.90;;;;;;5042483;28;20577;-78
2022/06/14 12:57:18;;;;;;;4.95;1.40;;;18.10;99.90;;;;;;5031992;28;20046;-78
2022/06/14 13:00:15;;;;;;;3.08;1.00;;;18.10;99.90;;;;;;5033861;28;20075;-79
2022/06/14 13:03:26;;;;;;;3.05;1.10;;;17.90;99.90;;;;;;5000221;28;20536;-77
2022/06/14 13:05:57;;;;;;;4.15;1.13;;;17.90;99.90;;;;;;5042157;28;20037;-79
2022/06/14 13:08:39;;;;;;;5.10;1.02;;;17.80;99.90;;;;;;5019600;28;20034;-79
2022/06/14 13:11:19;;;;;;;3.45;1.02;;;18.00;99.90;;;;;;5036094;28;20096;-78
2022/06/14 13:13:54;;;;;;;2.92;0.98;;;17.90;99.90;;;;;;5025639;28;20124;-80
2022/06/14 13:16:46;;;;;;;9.98;2.22;;;17.90;99.90;;;;;;5037489;28;20045;-78
2022/06/14 13:19:20;;;;;;;5.97;2.40;;;17.90;99.90;;;;;;5019165;28;20057;-79
2022/06/14 13:21:49;;;;;;;3.63;0.98;;;17.90;99.90;;;;;;5031211;28;20045;-78
2022/06/14 13:24:43;;;;;;;5.90;1.10;;;17.90;99.90;;;;;;5034236;28;20040;-80
2022/06/14 13:27:15;;;;;;;;;;;18.00;99.90;;;;;;5029281;28;20041;-79
2022/06/14 13:29:56;;;;;;;3.65;0.77;;;18.10;99.90;;;;;;5025962;28;20039;-79
2022/06/14 13:32:38;;;;;;;2.38;1.00;;;18.10;99.90;;;;;;5023774;28;20037;-79
2022/06/14 13:35:09;;;;;;;5.38;1.23;;;18.30;99.90;;;;;;5035592;28;20124;-80
2022/06/14 13:37:54;;;;;;;4.38;1.00;;;18.40;99.90;;;;;;5033538;28;20098;-76
2022/06/14 13:40:34;;;;;;;5.32;3.17;;;18.50;99.90;;;;;;5033891;28;20120;-79
2022/06/14 13:43:13;;;;;;;2.97;0.77;;;18.60;99.90;;;;;;5024358;28;20421;-77
2022/06/14 13:45:45;;;;;;;5.20;1.20;;;18.70;99.90;;;;;;5021087;28;20040;-78
2022/06/14 13:48:31;;;;;;;1.45;0.40;;;18.70;99.90;;;;;;5015663;28;20583;-79
2022/06/14 13:51:21;;;;;;;3.08;0.70;;;18.70;99.90;;;;;;5038351;28;20041;-79
2022/06/14 13:53:55;;;;;;;4.55;0.73;;;18.70;99.90;;;;;;5029840;28;20129;-80
2022/06/14 13:56:26;;;;;;;1.55;0.55;;;18.70;99.90;;;;;;5039927;28;20076;-80
2022/06/14 13:59:00;;;;;;;3.78;0.80;;;18.70;99.90;;;;;;5018065;28;20461;-79
2022/06/14 14:01:36;;;;;;;3.50;0.52;;;18.70;99.90;;;;;;5038388;28;20051;-80
2022/06/14 14:04:17;;;;;;;1.15;0.57;;;18.70;99.90;;;;;;5039444;28;20041;-79
2022/06/14 14:07:10;;;;;;;3.00;1.20;;;18.80;99.90;;;;;;5025316;28;20051;-80